Time;durP1;ratioP1;P1;durP2;ratioP2;P2;SDS_P1;SDS_P2;PMS_P1;PMS_P2;Temp;Humidity;BMP_temperature;BMP_pressure;BME280_temperature;BME280_humidity;BME280_pressure;Samples;Min_cycle;Max_cycle;Signal;HPM_P1;HPM_P2
2022/06/27 00:00:48;;;;;;;8.43;5.28;;;;;;;;;;4919907;29;20044;-81
2022/06/27 00:03:34;;;;;;;7.35;5.10;;;;;;;;;;4919995;29;20048;-81
2022/06/27 00:06:22;;;;;;;7.20;5.22;;;;;;;;;;4925439;29;20044;-78
2022/06/27 00:09:07;;;;;;;12.55;5.55;;;;;;;;;;4920152;29;20483;-80
2022/06/27 00:11:52;;;;;;;10.13;5.63;;;;;;;;;;4912026;29;20040;-81
2022/06/27 00:14:38;;;;;;;8.73;5.68;;;;;;;;;;4919071;29;20044;-80
2022/06/27 00:17:23;;;;;;;7.20;6.28;;;;;;;;;;4919745;29;20040;-78
2022/06/27 00:20:10;;;;;;;9.18;5.80;;;;;;;;;;4919087;29;20052;-78
2022/06/27 00:22:55;;;;;;;11.38;6.68;;;;;;;;;;4919928;29;20036;-78
2022/06/27 00:25:40;;;;;;;13.25;6.20;;;;;;;;;;4919531;29;20048;-78
2022/06/27 00:28:26;;;;;;;13.50;7.35;;;;;;;;;;4918904;29;20044;-78
2022/06/27 00:31:11;;;;;;;10.73;6.47;;;;;;;;;;4919634;29;20051;-78
2022/06/27 00:33:57;;;;;;;15.30;6.63;;;;;;;;;;4910968;29;20044;-78
2022/06/27 00:36:43;;;;;;;12.57;6.97;;;;;;;;;;4919372;29;20056;-78
2022/06/27 00:39:28;;;;;;;11.82;6.75;;;;;;;;;;4911373;29;20510;-78
2022/06/27 00:42:14;;;;;;;13.48;6.90;;;;;;;;;;4918842;29;20044;-78
2022/06/27 00:44:59;;;;;;;11.38;6.93;;;;;;;;;;4937598;29;20048;-78
2022/06/27 00:47:45;;;;;;;10.27;6.47;;;;;;;;;;4911016;29;20044;-79
2022/06/27 00:50:32;;;;;;;7.97;6.68;;;;;;;;;;4918985;29;20394;-77
2022/06/27 00:53:18;;;;;;;16.13;7.13;;;;;;;;;;4919211;29;20048;-77
2022/06/27 00:56:04;;;;;;;9.93;6.78;;;;;;;;;;4918378;29;20064;-78
2022/06/27 00:58:49;;;;;;;12.48;6.78;;;;;;;;;;4918773;29;20055;-79
2022/06/27 01:01:35;;;;;;;10.75;6.70;;;;;;;;;;4919043;29;20044;-79
2022/06/27 01:04:21;;;;;;;10.57;6.00;;;;;;;;;;4918377;29;20052;-79
2022/06/27 01:07:08;;;;;;;10.85;6.05;;;;;;;;;;4919128;29;20040;-79
2022/06/27 01:09:56;;;;;;;8.93;6.18;;;;;;;;;;4937010;29;20044;-79
2022/06/27 01:12:42;;;;;;;8.88;5.75;;;;;;;;;;4918928;29;20052;-78
2022/06/27 01:15:28;;;;;;;15.18;6.50;;;;;;;;;;4918185;29;20048;-78
2022/06/27 01:18:15;;;;;;;11.25;5.88;;;;;;;;;;4910268;29;20434;-78
2022/06/27 01:21:01;;;;;;;7.85;5.97;;;;;;;;;;4911180;29;20036;-78
2022/06/27 01:23:47;;;;;;;8.45;6.43;;;;;;;;;;4917998;29;20052;-79
2022/06/27 01:26:34;;;;;;;8.85;6.15;;;;;;;;;;4910575;29;20052;-79
2022/06/27 01:29:20;;;;;;;9.05;6.25;;;;;;;;;;4937025;29;20486;-80
2022/06/27 01:32:07;;;;;;;25.65;13.00;;;;;;;;;;4909911;29;20044;-80
2022/06/27 01:34:53;;;;;;;10.50;7.57;;;;;;;;;;4936870;29;20040;-81
2022/06/27 01:37:38;;;;;;;10.38;6.20;;;;;;;;;;4918059;29;20048;-80
2022/06/27 01:40:24;;;;;;;7.88;6.07;;;;;;;;;;4910128;29;20410;-80
2022/06/27 01:43:10;;;;;;;10.25;6.10;;;;;;;;;;4923434;29;20048;-80
2022/06/27 01:45:55;;;;;;;9.65;5.60;;;;;;;;;;4909568;29;20078;-80
2022/06/27 01:48:41;;;;;;;7.93;5.53;;;;;;;;;;4910353;29;20056;-80
2022/06/27 01:51:26;;;;;;;6.65;5.82;;;;;;;;;;4910021;29;20040;-80
2022/06/27 01:54:14;;;;;;;10.52;5.22;;;;;;;;;;4909255;29;20056;-79
2022/06/27 01:56:59;;;;;;;12.93;5.65;;;;;;;;;;4909272;29;20048;-79
2022/06/27 01:59:45;;;;;;;9.07;5.50;;;;;;;;;;4909623;29;20048;-79
2022/06/27 02:02:31;;;;;;;6.78;4.80;;;;;;;;;;4910100;29;20056;-79
2022/06/27 02:05:16;;;;;;;8.18;5.25;;;;;;;;;;4917768;29;20044;-78
2022/06/27 02:08:03;;;;;;;5.88;4.90;;;;;;;;;;4917205;29;20056;-79
2022/06/27 02:10:50;;;;;;;7.35;5.65;;;;;;;;;;4909725;29;20047;-79
2022/06/27 02:13:35;;;;;;;7.68;5.80;;;;;;;;;;4908492;29;20045;-79
2022/06/27 02:16:20;;;;;;;8.68;5.97;;;;;;;;;;4909413;29;20490;-79
2022/06/27 02:19:06;;;;;;;6.10;5.28;;;;;;;;;;4909740;29;20036;-79
2022/06/27 02:21:52;;;;;;;9.15;5.20;;;;;;;;;;4909158;29;20048;-80
2022/06/27 02:24:37;;;;;;;10.20;5.47;;;;;;;;;;4924115;29;20051;-78
2022/06/27 02:27:24;;;;;;;7.38;5.28;;;;;;;;;;4923957;29;20073;-80
2022/06/27 02:30:10;;;;;;;8.45;5.47;;;;;;;;;;4935857;29;20060;-79
2022/06/27 02:32:55;;;;;;;9.10;5.35;;;;;;;;;;4909534;29;20052;-79
2022/06/27 02:35:40;;;;;;;11.70;5.22;;;;;;;;;;4909044;29;20410;-79
2022/06/27 02:38:26;;;;;;;8.18;5.75;;;;;;;;;;4917481;29;20036;-79
2022/06/27 02:41:17;;;;;;;8.85;5.53;;;;;;;;;;4922703;29;20051;-79
2022/06/27 02:44:07;;;;;;;9.55;5.45;;;;;;;;;;4916749;29;20048;-79
2022/06/27 02:46:52;;;;;;;8.82;5.65;;;;;;;;;;4917172;29;20048;-79
2022/06/27 02:49:38;;;;;;;10.27;5.32;;;;;;;;;;4908916;29;20048;-79
2022/06/27 02:52:33;;;;;;;11.32;5.80;;;;;;;;;;4936073;29;20505;-79
2022/06/27 02:55:28;;;;;;;6.43;5.40;;;;;;;;;;4936155;29;20040;-79
2022/06/27 02:58:23;;;;;;;9.75;5.50;;;;;;;;;;4916801;29;20044;-79
2022/06/27 03:01:10;;;;;;;7.78;5.63;;;;;;;;;;4908839;29;20048;-79
2022/06/27 03:03:58;;;;;;;9.00;6.00;;;;;;;;;;4909053;29;20052;-79
2022/06/27 03:06:49;;;;;;;10.60;5.60;;;;;;;;;;4909154;29;20052;-79
2022/06/27 03:09:34;;;;;;;8.88;5.88;;;;;;;;;;4911965;29;20406;-79
2022/06/27 03:12:20;;;;;;;10.68;6.10;;;;;;;;;;4912032;29;20044;-79
2022/06/27 03:15:07;;;;;;;6.72;5.70;;;;;;;;;;4907091;29;20044;-79
2022/06/27 03:17:52;;;;;;;8.18;5.93;;;;;;;;;;4912516;29;20044;-79
2022/06/27 03:20:46;;;;;;;8.60;5.30;;;;;;;;;;4920476;29;20044;-80
2022/06/27 03:23:40;;;;;;;8.60;5.35;;;;;;;;;;4912862;29;20060;-78
2022/06/27 03:26:27;;;;;;;7.93;5.63;;;;;;;;;;4912225;29;20052;-79
2022/06/27 03:29:13;;;;;;;6.15;4.65;;;;;;;;;;4920219;29;20048;-78
2022/06/27 03:31:59;;;;;;;7.15;4.82;;;;;;;;;;4911942;29;20048;-78
2022/06/27 03:34:45;;;;;;;11.65;5.28;;;;;;;;;;4912158;29;20040;-78
2022/06/27 03:37:37;;;;;;;9.60;5.00;;;;;;;;;;4912682;29;20040;-79
2022/06/27 03:40:24;;;;;;;10.07;5.47;;;;;;;;;;4933532;29;20044;-79
2022/06/27 03:43:10;;;;;;;13.45;5.72;;;;;;;;;;4912336;29;20048;-78
2022/06/27 03:45:56;;;;;;;12.02;5.75;;;;;;;;;;4911961;29;20048;-79
2022/06/27 03:52:15;;;;;;;6.43;4.90;;;;;;;;;;4919631;29;20044;-80
2022/06/27 03:55:00;;;;;;;8.88;4.82;;;;;;;;;;4915989;29;20044;-80
2022/06/27 03:57:55;;;;;;;10.32;5.60;;;;;;;;;;4917136;29;20048;-79
2022/06/27 04:00:43;;;;;;;8.65;5.18;;;;;;;;;;4915971;29;20036;-80
2022/06/27 04:03:28;;;;;;;7.30;5.22;;;;;;;;;;4916298;29;20055;-80
2022/06/27 04:06:17;;;;;;;11.48;5.65;;;;;;;;;;4924629;29;20048;-80
2022/06/27 04:09:04;;;;;;;11.13;5.32;;;;;;;;;;4915519;29;20052;-80
2022/06/27 04:11:49;;;;;;;7.35;5.25;;;;;;;;;;4922891;29;20040;-77
2022/06/27 04:14:55;;;;;;;10.23;5.55;;;;;;;;;;4922101;29;20052;-78
2022/06/27 04:18:01;;;;;;;13.18;5.22;;;;;;;;;;4924832;29;20051;-78
2022/06/27 04:21:13;;;;;;;9.70;5.13;;;;;;;;;;4913157;29;20044;-78
2022/06/27 04:24:27;;;;;;;10.63;5.70;;;;;;;;;;4918164;29;20043;-78
2022/06/27 04:27:19;;;;;;;9.82;5.18;;;;;;;;;;4911668;29;20044;-78
2022/06/27 04:30:05;;;;;;;12.27;5.28;;;;;;;;;;4937472;29;20040;-78
2022/06/27 04:32:51;;;;;;;14.13;5.53;;;;;;;;;;4911048;29;20060;-78
2022/06/27 04:35:40;;;;;;;6.90;5.40;;;;;;;;;;4911235;29;20048;-78
2022/06/27 04:38:26;;;;;;;8.40;5.50;;;;;;;;;;4911304;29;20478;-78
2022/06/27 04:41:14;;;;;;;9.27;5.50;;;;;;;;;;4919199;29;20040;-77
2022/06/27 04:44:04;;;;;;;11.45;5.47;;;;;;;;;;4910410;29;20044;-78
2022/06/27 04:46:50;;;;;;;8.55;5.38;;;;;;;;;;4910066;29;20051;-78
2022/06/27 04:50:00;;;;;;;9.38;4.88;;;;;;;;;;4917594;29;20052;-78
2022/06/27 04:52:48;;;;;;;11.98;5.45;;;;;;;;;;4937451;29;20052;-77
2022/06/27 04:55:34;;;;;;;10.93;4.82;;;;;;;;;;4910730;29;20044;-77
2022/06/27 04:58:19;;;;;;;9.48;4.88;;;;;;;;;;4909924;29;20481;-78
2022/06/27 05:01:05;;;;;;;11.98;5.18;;;;;;;;;;4911058;29;20048;-77
2022/06/27 05:04:04;;;;;;;11.45;5.07;;;;;;;;;;4923836;29;20411;-77
2022/06/27 05:06:55;;;;;;;13.85;5.07;;;;;;;;;;4910865;29;20044;-77
2022/06/27 05:09:41;;;;;;;9.20;5.07;;;;;;;;;;4911212;29;20055;-77
2022/06/27 05:12:27;;;;;;;10.05;4.50;;;;;;;;;;4910365;29;20048;-77
2022/06/27 05:15:13;;;;;;;7.55;4.78;;;;;;;;;;4904888;29;20044;-77
2022/06/27 05:17:58;;;;;;;12.00;4.60;;;;;;;;;;4910613;29;20040;-77
2022/06/27 05:20:44;;;;;;;8.63;5.15;;;;;;;;;;4910300;29;20056;-77
2022/06/27 05:23:32;;;;;;;12.45;5.28;;;;;;;;;;4910700;29;20048;-77
2022/06/27 05:26:18;;;;;;;7.05;4.35;;;;;;;;;;4930156;29;20048;-77
2022/06/27 05:29:04;;;;;;;14.15;4.35;;;;;;;;;;4923613;29;20051;-77
2022/06/27 05:31:51;;;;;;;6.72;4.15;;;;;;;;;;4910042;29;20052;-78
2022/06/27 05:34:38;;;;;;;8.35;4.32;;;;;;;;;;4936080;29;20394;-78
2022/06/27 05:37:24;;;;;;;7.40;4.47;;;;;;;;;;4909275;29;20048;-76
2022/06/27 05:40:09;;;;;;;9.75;4.38;;;;;;;;;;4909659;29;20091;-77
2022/06/27 05:42:57;;;;;;;8.07;3.95;;;;;;;;;;4916420;29;20490;-76
2022/06/27 05:45:42;;;;;;;12.48;5.15;;;;;;;;;;4910088;29;20047;-76
2022/06/27 05:48:46;;;;;;;7.60;3.42;;;;;;;;;;4915716;29;20044;-76
2022/06/27 05:51:41;;;;;;;6.55;3.63;;;;;;;;;;4911055;29;20040;-77
2022/06/27 05:54:28;;;;;;;5.95;3.97;;;;;;;;;;4909475;29;20044;-76
2022/06/27 05:57:14;;;;;;;6.80;4.30;;;;;;;;;;4909605;29;20048;-76
2022/06/27 06:00:00;;;;;;;5.75;4.10;;;;;;;;;;4924404;29;20044;-76
2022/06/27 06:02:47;;;;;;;5.57;3.80;;;;;;;;;;4922444;29;20048;-77
2022/06/27 06:05:36;;;;;;;7.95;4.40;;;;;;;;;;4923159;29;20052;-77
2022/06/27 06:08:23;;;;;;;9.60;4.68;;;;;;;;;;4917551;29;20048;-77
2022/06/27 06:11:10;;;;;;;5.15;4.00;;;;;;;;;;4909688;29;20048;-76
2022/06/27 06:13:56;;;;;;;7.68;4.97;;;;;;;;;;4907558;29;20048;-77
2022/06/27 06:16:41;;;;;;;9.10;4.82;;;;;;;;;;4922124;29;20052;-76
2022/06/27 06:19:32;;;;;;;6.53;4.10;;;;;;;;;;4909949;29;20048;-77
2022/06/27 06:22:22;;;;;;;7.38;4.45;;;;;;;;;;4936143;29;20048;-79
2022/06/27 06:25:08;;;;;;;8.00;4.32;;;;;;;;;;4909220;29;20048;-77
2022/06/27 06:28:01;;;;;;;8.45;4.30;;;;;;;;;;4936155;29;20409;-80
2022/06/27 06:30:47;;;;;;;8.02;4.18;;;;;;;;;;4922514;29;20494;-78
2022/06/27 06:33:32;;;;;;;7.30;4.43;;;;;;;;;;4909457;29;20048;-79
2022/06/27 06:36:19;;;;;;;9.55;4.47;;;;;;;;;;4936007;29;20048;-79
2022/06/27 06:39:06;;;;;;;8.65;4.43;;;;;;;;;;4922350;29;20048;-79
2022/06/27 06:41:52;;;;;;;8.68;4.50;;;;;;;;;;4909640;29;20052;-79
2022/06/27 06:44:38;;;;;;;11.60;4.50;;;;;;;;;;4908290;29;20048;-80
2022/06/27 06:47:47;;;;;;;10.75;4.25;;;;;;;;;;4909509;29;20048;-79
2022/06/27 06:50:35;;;;;;;9.27;4.75;;;;;;;;;;4909533;29;20048;-79
2022/06/27 06:53:21;;;;;;;9.25;4.43;;;;;;;;;;4917052;29;20059;-79
2022/06/27 06:56:07;;;;;;;6.70;3.70;;;;;;;;;;4917423;29;20478;-79
2022/06/27 06:58:52;;;;;;;11.27;5.30;;;;;;;;;;4916649;29;20052;-78
2022/06/27 07:01:39;;;;;;;8.05;4.40;;;;;;;;;;4917516;29;20043;-78
2022/06/27 07:04:25;;;;;;;11.57;4.90;;;;;;;;;;4917073;29;20052;-79
2022/06/27 07:07:11;;;;;;;9.18;4.65;;;;;;;;;;4916550;29;20040;-77
2022/06/27 07:09:56;;;;;;;5.45;4.55;;;;;;;;;;4923598;29;20056;-79
2022/06/27 07:12:43;;;;;;;8.98;4.93;;;;;;;;;;4916602;29;20052;-78
2022/06/27 07:15:29;;;;;;;6.90;4.65;;;;;;;;;;4916518;29;20051;-78
2022/06/27 07:18:14;;;;;;;8.75;5.03;;;;;;;;;;4916998;29;20483;-78
2022/06/27 07:21:00;;;;;;;9.13;4.28;;;;;;;;;;4916443;29;20048;-78
2022/06/27 07:23:48;;;;;;;11.02;5.30;;;;;;;;;;4918843;29;20486;-78
2022/06/27 07:26:33;;;;;;;13.73;4.82;;;;;;;;;;4916618;29;20056;-79
2022/06/27 07:29:19;;;;;;;9.18;5.32;;;;;;;;;;4919315;29;20044;-76
2022/06/27 07:32:05;;;;;;;8.98;5.00;;;;;;;;;;4917100;29;20056;-76
2022/06/27 07:34:51;;;;;;;16.08;4.97;;;;;;;;;;4916180;29;20048;-76
2022/06/27 07:37:44;;;;;;;11.45;4.93;;;;;;;;;;4916765;29;20048;-78
2022/06/27 07:40:29;;;;;;;8.43;4.78;;;;;;;;;;4916869;29;20044;-78
2022/06/27 07:43:15;;;;;;;10.77;4.55;;;;;;;;;;4916963;29;20052;-77
2022/06/27 07:46:01;;;;;;;8.50;4.53;;;;;;;;;;4916670;29;20044;-78
2022/06/27 07:48:48;;;;;;;10.35;4.15;;;;;;;;;;4915917;29;20044;-78
2022/06/27 07:51:35;;;;;;;14.07;4.10;;;;;;;;;;4916724;29;20040;-77
2022/06/27 07:54:21;;;;;;;9.93;4.10;;;;;;;;;;4916898;29;20051;-77
2022/06/27 07:57:07;;;;;;;9.07;4.18;;;;;;;;;;4918816;29;20052;-77
2022/06/27 07:59:54;;;;;;;9.38;4.72;;;;;;;;;;4919960;29;20044;-77
2022/06/27 08:02:41;;;;;;;13.15;4.15;;;;;;;;;;4919144;29;20047;-77
2022/06/27 08:05:28;;;;;;;6.63;4.15;;;;;;;;;;4926513;29;20044;-79
2022/06/27 08:08:13;;;;;;;8.75;4.38;;;;;;;;;;4919340;29;20486;-78
2022/06/27 08:10:59;;;;;;;7.85;4.38;;;;;;;;;;4918608;29;20048;-77
2022/06/27 08:13:47;;;;;;;7.55;3.83;;;;;;;;;;4919309;29;20066;-78
2022/06/27 08:16:35;;;;;;;11.60;4.45;;;;;;;;;;4919012;29;20052;-78
2022/06/27 08:19:21;;;;;;;10.18;3.67;;;;;;;;;;4919337;29;20040;-77
2022/06/27 08:22:06;;;;;;;6.07;3.88;;;;;;;;;;4919702;29;20052;-78
2022/06/27 08:24:52;;;;;;;7.47;3.75;;;;;;;;;;4918932;29;20044;-76
2022/06/27 08:27:38;;;;;;;6.80;3.70;;;;;;;;;;4918854;29;20506;-76
2022/06/27 08:30:25;;;;;;;13.27;3.90;;;;;;;;;;4925066;29;20052;-77
2022/06/27 08:33:12;;;;;;;7.25;4.03;;;;;;;;;;4918957;29;20044;-77
2022/06/27 08:35:57;;;;;;;8.77;3.58;;;;;;;;;;4918865;29;20048;-76
2022/06/27 08:38:45;;;;;;;13.85;3.65;;;;;;;;;;4910469;29;20060;-77
2022/06/27 08:41:31;;;;;;;9.70;3.45;;;;;;;;;;4925695;29;20056;-76
2022/06/27 08:44:17;;;;;;;5.07;3.28;;;;;;;;;;4925386;29;20048;-76
2022/06/27 08:47:03;;;;;;;15.45;3.08;;;;;;;;;;4918462;29;20052;-77
2022/06/27 08:49:52;;;;;;;4.32;2.60;;;;;;;;;;4919068;29;20049;-76
2022/06/27 08:52:39;;;;;;;11.27;2.92;;;;;;;;;;4924962;29;20052;-77
2022/06/27 08:55:25;;;;;;;5.65;2.63;;;;;;;;;;4925082;29;20056;-78
2022/06/27 08:58:12;;;;;;;10.10;3.15;;;;;;;;;;4918643;29;20494;-77
2022/06/27 09:00:57;;;;;;;10.32;2.70;;;;;;;;;;4924750;29;20051;-77
2022/06/27 09:04:00;;;;;;;6.78;2.20;;;;;;;;;;4918921;29;20498;-80
2022/06/27 09:06:47;;;;;;;6.05;1.90;;;;;;;;;;4917560;29;20044;-81
2022/06/27 09:09:32;;;;;;;7.63;2.03;;;;;;;;;;4918213;29;20048;-80
2022/06/27 09:12:17;;;;;;;4.72;2.40;;;;;;;;;;4918134;29;20052;-80
2022/06/27 09:15:04;;;;;;;3.58;1.92;;;;;;;;;;4916086;29;20079;-80
2022/06/27 09:18:00;;;;;;;4.18;2.30;;;;;;;;;;4916881;29;20059;-80
2022/06/27 09:20:52;;;;;;;5.28;2.50;;;;;;;;;;4923502;29;20048;-80
2022/06/27 09:23:50;;;;;;;4.30;2.50;;;;;;;;;;4917727;29;20052;-80
2022/06/27 09:26:38;;;;;;;9.55;2.40;;;;;;;;;;4918260;29;20048;-80
2022/06/27 09:29:27;;;;;;;7.50;3.28;;;;;;;;;;4923970;29;20052;-79
2022/06/27 09:32:13;;;;;;;7.28;3.10;;;;;;;;;;4917584;29;20051;-81
2022/06/27 09:35:20;;;;;;;5.90;2.60;;;;;;;;;;4916811;29;20048;-81
2022/06/27 09:38:11;;;;;;;5.55;2.40;;;;;;;;;;4923862;29;20048;-83
2022/06/27 09:40:56;;;;;;;5.53;2.50;;;;;;;;;;4917507;29;20047;-81
2022/06/27 09:43:46;;;;;;;9.27;2.70;;;;;;;;;;4917106;29;20060;-82
2022/06/27 09:46:38;;;;;;;3.75;2.15;;;;;;;;;;4917777;29;20048;-81
2022/06/27 09:49:25;;;;;;;4.32;2.35;;;;;;;;;;4917052;29;20052;-81
2022/06/27 09:52:12;;;;;;;3.58;2.17;;;;;;;;;;4918436;29;20394;-81
2022/06/27 09:54:59;;;;;;;5.78;2.30;;;;;;;;;;4924073;29;20048;-80
2022/06/27 09:57:46;;;;;;;7.10;2.38;;;;;;;;;;4917105;29;20056;-79
2022/06/27 10:00:32;;;;;;;6.20;2.22;;;;;;;;;;4917926;29;20048;-80
2022/06/27 10:03:18;;;;;;;5.60;2.58;;;;;;;;;;4924102;29;20048;-80
2022/06/27 10:06:05;;;;;;;5.68;2.10;;;;;;;;;;4917774;29;20402;-81
2022/06/27 10:08:51;;;;;;;4.20;2.40;;;;;;;;;;4917940;29;20048;-81
2022/06/27 10:11:37;;;;;;;7.18;2.47;;;;;;;;;;4916636;29;20052;-80
2022/06/27 10:14:23;;;;;;;6.82;2.17;;;;;;;;;;4916873;29;20052;-82
2022/06/27 10:17:13;;;;;;;6.97;2.03;;;;;;;;;;4917267;29;20482;-80
2022/06/27 10:20:15;;;;;;;5.72;2.50;;;;;;;;;;4917008;29;20051;-79
2022/06/27 10:23:03;;;;;;;11.18;2.72;;;;;;;;;;4923878;29;20399;-79
2022/06/27 10:25:49;;;;;;;6.45;2.88;;;;;;;;;;4917172;29;20044;-79
2022/06/27 10:28:36;;;;;;;5.78;2.20;;;;;;;;;;4916170;29;20052;-81
2022/06/27 10:31:24;;;;;;;8.55;2.45;;;;;;;;;;4917533;29;20044;-79
2022/06/27 10:34:09;;;;;;;4.30;2.83;;;;;;;;;;4922167;29;20462;-80
2022/06/27 10:37:19;;;;;;;5.15;2.13;;;;;;;;;;4915156;29;20397;-80
2022/06/27 10:40:20;;;;;;;5.55;2.67;;;;;;;;;;4916768;29;20044;-80
2022/06/27 10:43:05;;;;;;;4.68;2.70;;;;;;;;;;4916366;29;20044;-79
2022/06/27 10:45:51;;;;;;;10.05;2.45;;;;;;;;;;4916380;29;20055;-81
2022/06/27 10:48:39;;;;;;;6.63;2.80;;;;;;;;;;4923394;29;20402;-80
2022/06/27 10:51:28;;;;;;;8.10;2.53;;;;;;;;;;4917736;29;20059;-80
2022/06/27 10:54:13;;;;;;;4.53;2.13;;;;;;;;;;4895749;29;20044;-77
2022/06/27 10:56:58;;;;;;;5.35;2.28;;;;;;;;;;4923344;29;20394;-78
2022/06/27 10:59:44;;;;;;;6.70;2.45;;;;;;;;;;4917137;29;20048;-78
2022/06/27 11:02:33;;;;;;;7.60;2.53;;;;;;;;;;4916742;29;20494;-79
2022/06/27 11:05:18;;;;;;;11.23;3.13;;;;;;;;;;4917387;29;20040;-77
2022/06/27 11:08:04;;;;;;;9.88;2.72;;;;;;;;;;4916510;29;20052;-77
2022/06/27 11:10:51;;;;;;;3.47;2.20;;;;;;;;;;4923332;29;20056;-77
2022/06/27 11:13:37;;;;;;;3.13;1.98;;;;;;;;;;4916660;29;20048;-77
2022/06/27 11:16:28;;;;;;;3.70;1.77;;;;;;;;;;4916288;29;20056;-77
2022/06/27 11:22:23;;;;;;;6.03;2.00;;;;;;;;;;4922218;29;20044;-77
2022/06/27 11:25:09;;;;;;;5.18;2.40;;;;;;;;;;4923056;29;20398;-78
2022/06/27 11:27:58;;;;;;;6.53;2.22;;;;;;;;;;4916706;29;20044;-79
2022/06/27 11:33:47;;;;;;;6.27;2.10;;;;;;;;;;4920269;29;20040;-77
2022/06/27 11:36:33;;;;;;;3.30;2.10;;;;;;;;;;4920006;29;20043;-78
2022/06/27 11:39:29;;;;;;;3.95;2.05;;;;;;;;;;4920139;29;20040;-77
2022/06/27 11:42:14;;;;;;;3.33;1.92;;;;;;;;;;4926833;29;20059;-77
2022/06/27 11:45:14;;;;;;;6.68;2.10;;;;;;;;;;4919767;29;20048;-77
2022/06/27 11:47:59;;;;;;;40.72;36.47;;;;;;;;;;4920002;29;20044;-77
2022/06/27 11:50:44;;;;;;;12.65;11.32;;;;;;;;;;4919245;29;20044;-79
2022/06/27 11:53:30;;;;;;;10.85;8.82;;;;;;;;;;4920048;29;20040;-77
2022/06/27 11:56:26;;;;;;;7.53;3.20;;;;;;;;;;4919632;29;20491;-77
2022/06/27 11:59:14;;;;;;;9.75;6.50;;;;;;;;;;4925461;29;20040;-76
2022/06/27 12:02:03;;;;;;;3.95;1.90;;;;;;;;;;4919844;29;20048;-77
2022/06/27 12:05:02;;;;;;;4.40;2.00;;;;;;;;;;4918967;29;20486;-77
2022/06/27 12:08:05;;;;;;;4.57;1.85;;;;;;;;;;4926013;29;20410;-77
2022/06/27 12:13:59;;;;;;;3.25;2.28;;;;;;;;;;4919136;29;20048;-79
2022/06/27 12:16:47;;;;;;;3.70;1.90;;;;;;;;;;4919770;29;20048;-79
2022/06/27 12:19:33;;;;;;;5.82;2.08;;;;;;;;;;4918994;29;20509;-78
2022/06/27 12:22:19;;;;;;;6.32;2.00;;;;;;;;;;4919684;29;20052;-78
2022/06/27 12:25:05;;;;;;;7.47;2.30;;;;;;;;;;4925600;29;20044;-80
2022/06/27 12:27:50;;;;;;;6.82;2.20;;;;;;;;;;4919039;29;20044;-79
2022/06/27 12:30:35;;;;;;;4.38;1.92;;;;;;;;;;4919425;29;20055;-79
2022/06/27 12:33:21;;;;;;;2.53;1.95;;;;;;;;;;4919014;29;20052;-79
2022/06/27 12:36:07;;;;;;;6.32;2.17;;;;;;;;;;4919293;29;20044;-79
2022/06/27 12:38:53;;;;;;;6.53;2.30;;;;;;;;;;4918753;29;20068;-79
2022/06/27 12:41:39;;;;;;;4.53;2.00;;;;;;;;;;4918026;29;20047;-79
2022/06/27 12:44:29;;;;;;;3.75;1.95;;;;;;;;;;4919091;29;20402;-80
2022/06/27 12:47:29;;;;;;;4.63;1.70;;;;;;;;;;4925516;29;20490;-79
2022/06/27 12:50:16;;;;;;;5.88;1.95;;;;;;;;;;4925181;29;20052;-79
2022/06/27 12:53:01;;;;;;;7.07;2.15;;;;;;;;;;4919707;29;20047;-79
2022/06/27 12:55:47;;;;;;;4.47;1.98;;;;;;;;;;4924537;29;20060;-80
2022/06/27 12:58:33;;;;;;;3.45;1.83;;;;;;;;;;4918681;29;20119;-80
2022/06/27 13:01:20;;;;;;;4.60;3.17;;;;;;;;;;4924967;29;20047;-80
2022/06/27 13:04:05;;;;;;;6.60;3.47;;;;;;;;;;4918730;29;20390;-79
2022/06/27 13:06:51;;;;;;;4.45;2.20;;;;;;;;;;4918656;29;20051;-79
2022/06/27 13:09:37;;;;;;;5.55;2.08;;;;;;;;;;4917753;29;20040;-79
2022/06/27 13:12:23;;;;;;;5.05;2.08;;;;;;;;;;4918932;29;20060;-79
2022/06/27 13:15:09;;;;;;;4.18;1.80;;;;;;;;;;4918025;29;20044;-81
2022/06/27 13:17:54;;;;;;;3.25;2.10;;;;;;;;;;4918056;29;20056;-80
2022/06/27 13:20:39;;;;;;;8.32;2.60;;;;;;;;;;4930699;29;20056;-79
2022/06/27 13:23:24;;;;;;;5.38;2.10;;;;;;;;;;4917332;29;20056;-81
2022/06/27 13:26:10;;;;;;;3.28;1.80;;;;;;;;;;4924749;29;20402;-79
2022/06/27 13:28:56;;;;;;;6.97;1.98;;;;;;;;;;4918057;29;20060;-79
2022/06/27 13:31:41;;;;;;;2.90;2.00;;;;;;;;;;4917616;29;20048;-79
2022/06/27 13:34:27;;;;;;;3.75;2.15;;;;;;;;;;4918071;29;20048;-80
2022/06/27 13:37:13;;;;;;;6.68;2.10;;;;;;;;;;4917319;29;20052;-80
2022/06/27 13:39:58;;;;;;;2.95;2.10;;;;;;;;;;4917957;29;20048;-79
2022/06/27 13:42:43;;;;;;;4.43;1.80;;;;;;;;;;4923256;29;20068;-77
2022/06/27 13:45:30;;;;;;;4.90;1.90;;;;;;;;;;4921955;29;20055;-81
2022/06/27 13:48:15;;;;;;;4.10;2.00;;;;;;;;;;4909403;29;20056;-81
2022/06/27 13:51:00;;;;;;;4.53;2.10;;;;;;;;;;4916949;29;20048;-80
2022/06/27 13:53:46;;;;;;;4.50;2.35;;;;;;;;;;4916891;29;20060;-81
2022/06/27 13:56:31;;;;;;;4.43;2.00;;;;;;;;;;4917649;29;20044;-81
2022/06/27 13:59:17;;;;;;;6.40;2.30;;;;;;;;;;4917302;29;20402;-80
2022/06/27 14:02:04;;;;;;;5.80;1.80;;;;;;;;;;4917825;29;20052;-79
2022/06/27 14:04:49;;;;;;;5.63;2.50;;;;;;;;;;4917747;29;20497;-81
2022/06/27 14:07:39;;;;;;;4.38;2.22;;;;;;;;;;4917584;29;20048;-81
2022/06/27 14:10:28;;;;;;;5.03;1.95;;;;;;;;;;4923968;29;20048;-79
2022/06/27 14:13:14;;;;;;;5.78;2.40;;;;;;;;;;4917861;29;20052;-79
2022/06/27 14:15:59;;;;;;;4.47;2.30;;;;;;;;;;4917634;29;20055;-78
2022/06/27 14:18:46;;;;;;;7.07;2.20;;;;;;;;;;4923627;29;20048;-80
2022/06/27 14:21:31;;;;;;;4.90;2.15;;;;;;;;;;4917758;29;20052;-79
2022/06/27 14:24:16;;;;;;;4.63;2.03;;;;;;;;;;4917234;29;20044;-78
2022/06/27 14:27:02;;;;;;;3.85;2.13;;;;;;;;;;4917410;29;20056;-81
2022/06/27 14:29:48;;;;;;;3.55;1.92;;;;;;;;;;4918106;29;20052;-78
2022/06/27 14:32:33;;;;;;;4.60;1.80;;;;;;;;;;4923533;29;20402;-76
2022/06/27 14:35:19;;;;;;;4.38;1.80;;;;;;;;;;4916916;29;20060;-84
2022/06/27 14:38:04;;;;;;;7.93;2.30;;;;;;;;;;4917017;29;20060;-81
2022/06/27 14:40:50;;;;;;;3.25;2.03;;;;;;;;;;4916659;29;20048;-79
2022/06/27 14:43:36;;;;;;;5.63;2.22;;;;;;;;;;4917818;29;20040;-80
2022/06/27 14:46:21;;;;;;;2.53;1.90;;;;;;;;;;4918628;29;20051;-79
2022/06/27 14:49:07;;;;;;;5.97;2.10;;;;;;;;;;4922363;29;20398;-80
2022/06/27 14:51:52;;;;;;;2.53;1.73;;;;;;;;;;4916826;29;20048;-81
2022/06/27 14:54:38;;;;;;;6.00;1.70;;;;;;;;;;4917167;29;20052;-80
2022/06/27 14:57:23;;;;;;;4.30;1.98;;;;;;;;;;4916928;29;20056;-83
2022/06/27 15:00:09;;;;;;;2.80;1.70;;;;;;;;;;4923597;29;20048;-80
2022/06/27 15:02:54;;;;;;;3.88;2.10;;;;;;;;;;4916518;29;20052;-80
2022/06/27 15:05:40;;;;;;;4.82;1.73;;;;;;;;;;4919512;29;20052;-79
2022/06/27 15:08:26;;;;;;;3.95;1.95;;;;;;;;;;4920978;29;20048;-79
2022/06/27 15:14:18;;;;;;;4.15;1.88;;;;;;;;;;4923881;29;20490;-79
2022/06/27 15:17:03;;;;;;;7.95;1.80;;;;;;;;;;4920143;29;20052;-79
2022/06/27 15:19:50;;;;;;;4.55;1.80;;;;;;;;;;4926297;29;20048;-79
2022/06/27 15:22:35;;;;;;;2.75;1.80;;;;;;;;;;4920929;29;20056;-80
2022/06/27 15:25:21;;;;;;;5.93;1.75;;;;;;;;;;4906195;29;20040;-78
2022/06/27 15:28:06;;;;;;;4.60;1.88;;;;;;;;;;4920381;29;20044;-79
2022/06/27 15:30:51;;;;;;;5.13;1.67;;;;;;;;;;4919747;29;20048;-78
2022/06/27 15:33:37;;;;;;;4.07;1.63;;;;;;;;;;4926745;29;20052;-81
2022/06/27 15:36:23;;;;;;;2.78;1.67;;;;;;;;;;4920627;29;20052;-81
2022/06/27 15:39:08;;;;;;;4.55;2.50;;;;;;;;;;4925847;29;20048;-79
2022/06/27 15:41:53;;;;;;;4.20;1.95;;;;;;;;;;4920262;29;20418;-79
2022/06/27 15:44:39;;;;;;;3.53;1.88;;;;;;;;;;4926214;29;20047;-81
2022/06/27 15:47:25;;;;;;;4.32;2.00;;;;;;;;;;4919635;29;20048;-78
2022/06/27 15:50:10;;;;;;;4.75;1.90;;;;;;;;;;4919695;29;20339;-79
2022/06/27 15:52:57;;;;;;;13.15;2.05;;;;;;;;;;4919551;29;20040;-78
2022/06/27 15:55:42;;;;;;;2.53;1.90;;;;;;;;;;4926665;29;20044;-81
2022/06/27 15:58:28;;;;;;;5.15;2.05;;;;;;;;;;4919549;29;20044;-79
2022/06/27 16:01:14;;;;;;;3.28;1.90;;;;;;;;;;4919131;29;20512;-78
2022/06/27 16:03:59;;;;;;;2.67;1.80;;;;;;;;;;4926196;29;20044;-80
2022/06/27 16:06:45;;;;;;;5.05;1.80;;;;;;;;;;4921715;29;20040;-82
2022/06/27 16:09:31;;;;;;;3.67;1.83;;;;;;;;;;4923887;29;20435;-81
2022/06/27 16:12:16;;;;;;;4.30;1.77;;;;;;;;;;4921953;29;20045;-79
2022/06/27 16:15:02;;;;;;;4.75;2.00;;;;;;;;;;4920030;29;20040;-80
2022/06/27 16:17:48;;;;;;;3.33;2.10;;;;;;;;;;4920836;29;20044;-79
2022/06/27 16:20:33;;;;;;;2.95;1.77;;;;;;;;;;4921233;29;20044;-82
2022/06/27 16:23:19;;;;;;;3.50;1.75;;;;;;;;;;4921326;29;20056;-79
2022/06/27 16:26:05;;;;;;;5.47;2.67;;;;;;;;;;4926993;29;20405;-80
2022/06/27 16:28:51;;;;;;;5.35;1.95;;;;;;;;;;4919824;29;20386;-82
2022/06/27 16:31:39;;;;;;;7.65;2.10;;;;;;;;;;4919630;29;20048;-81
2022/06/27 16:34:25;;;;;;;4.32;1.77;;;;;;;;;;4920369;29;20401;-80
2022/06/27 16:37:10;;;;;;;3.47;1.77;;;;;;;;;;4921146;29;20040;-81
2022/06/27 16:39:56;;;;;;;3.55;2.03;;;;;;;;;;4921565;29;20040;-80
2022/06/27 16:45:49;;;;;;;4.38;2.08;;;;;;;;;;4919110;29;20044;-79
2022/06/27 16:48:35;;;;;;;4.18;1.92;;;;;;;;;;4919087;29;20399;-79
2022/06/27 16:51:21;;;;;;;4.90;2.00;;;;;;;;;;4919087;29;20052;-79
2022/06/27 16:54:07;;;;;;;3.75;2.00;;;;;;;;;;4919235;29;20414;-79
2022/06/27 16:56:52;;;;;;;4.18;2.10;;;;;;;;;;4918720;29;20044;-79
2022/06/27 16:59:38;;;;;;;4.72;2.00;;;;;;;;;;4919420;29;20044;-80